Crew | Aerofun Virtual



 METAR AND TAF INFORMATION
METAR FOR EFKT
ADDS - METARS form results

(1937 UTC 21 July 2019)
Data provider http://aviationweather.gov/metar/data/
 
METAR text: EFKT 211920Z AUTO 18006KT CAVOK 19/14 Q1015
Conditions at: EFKT (KITTILA , FI) observed 1920 UTC 21 July 2019
Temperature: 19.0°C (66°F)
Dewpoint: 14.0°C (57°F) [RH = 73%]
Pressure (altimeter): 29.97 inches Hg (1015.0 mb)
Winds: from the S (180 degrees) at 7 MPH (6 knots; 3.1 m/s)
Visibility: 6 or more miles (10+ km)
Ceiling: ceiling and visibility are OK
Clouds: unknown
Weather: no significant weather observed at this time

METAR text: EFKT 211850Z AUTO 17005KT CAVOK 20/14 Q1014
Conditions at: EFKT (KITTILA , FI) observed 1850 UTC 21 July 2019
Temperature: 20.0°C (68°F)
Dewpoint: 14.0°C (57°F) [RH = 68%]
Pressure (altimeter): 29.94 inches Hg (1014.0 mb)
Winds: from the S (170 degrees) at 6 MPH (5 knots; 2.6 m/s)
Visibility: 6 or more miles (10+ km)
Ceiling: ceiling and visibility are OK
Clouds: unknown
Weather: no significant weather observed at this time

 AIRPORT MAP

 RUNWAY INFORMATION
Runway 16 Runway length 8202 ft Runway width 148 ft
Runway elevation 632 ft Runway displaced threshold 0 ft Runway heading 166
Runway 34 Runway length 8202 ft Runway width 148 ft
Runway elevation 644 ft Runway displaced threshold 0 ft Runway heading 346

 AIRPORT FREQUENCIES
Type AFIS Name AFIS Frequency 118.95 MHZ
Type ATIS Name ATIS Frequency 133.85 MHZ

 AIRPORT NEAR NAVIGATION AIDS
Type NDB Name Kittila Frequency 328 KHZ